Terminal Aerodrome Forecast
Issued by NWS

Home | Current Version | Previous Version | Text Only | Print | Product List | Glossary Off
Versions: 1 2 3 4 5 6 7 8 9 10 11 12 13 14 15 16

274
FTUS41 KCLE 231121
TAFFDY
TAF
KFDY 231121Z 2312/2412 12008KT P6SM BKN250
     FM232200 14010KT P6SM OVC100
     FM240500 18010KT P6SM -SHRA OVC035
     FM240700 19010KT 4SM -SHRA BR OVC025
     FM241000 21010G15KT P6SM OVC035=

USA.gov is the U.S. government's official web portal to all federal, state and local government web resources and services.